createdAt,value
2022-12-13T00:01:47.701Z,-0.80
2022-12-13T00:04:17.699Z,-0.80
2022-12-13T00:09:15.299Z,-0.70
2022-12-13T00:11:44.056Z,-0.60
2022-12-13T00:14:14.205Z,-0.50
2022-12-13T00:16:45.636Z,-0.60
2022-12-13T00:19:14.281Z,-0.90
2022-12-13T00:21:43.889Z,-0.70
2022-12-13T00:24:12.411Z,-0.70
2022-12-13T00:26:40.830Z,-1.00
2022-12-13T00:31:59.939Z,-0.80
2022-12-13T00:34:27.045Z,-0.70
2022-12-13T00:36:59.240Z,-1.10
2022-12-13T00:39:27.757Z,-0.90
2022-12-13T00:41:56.328Z,-0.40
2022-12-13T00:44:24.531Z,-0.90
2022-12-13T00:46:53.259Z,-0.90
2022-12-13T00:49:21.607Z,-0.90
2022-12-13T00:51:49.888Z,-0.80
2022-12-13T00:54:19.826Z,-0.80
2022-12-13T00:56:47.988Z,-0.70
2022-12-13T00:59:16.800Z,-0.80
2022-12-13T01:04:13.893Z,-0.60
2022-12-13T01:06:44.639Z,-0.80
2022-12-13T01:09:18.336Z,-0.60
2022-12-13T01:11:49.101Z,-0.60
2022-12-13T01:14:18.328Z,-0.60
2022-12-13T01:16:46.531Z,-0.30
2022-12-13T01:19:14.854Z,-0.60
2022-12-13T01:21:43.131Z,-0.60
2022-12-13T01:24:11.545Z,-0.30
2022-12-13T01:26:39.716Z,-0.60
2022-12-13T01:29:11.420Z,-0.50
2022-12-13T01:31:41.839Z,-0.30
2022-12-13T01:34:11.438Z,-0.40
2022-12-13T01:36:40.475Z,-0.40
2022-12-13T01:39:15.134Z,-0.40
2022-12-13T01:41:45.427Z,-0.70
2022-12-13T01:44:51.172Z,-0.60
2022-12-13T01:47:25.896Z,-0.90
2022-12-13T01:49:56.839Z,-0.30
2022-12-13T01:52:31.620Z,-0.70
2022-12-13T01:55:03.693Z,-0.50
2022-12-13T01:57:34.232Z,-0.70
2022-12-13T02:00:03.063Z,-0.40
2022-12-13T02:02:37.655Z,-0.70
2022-12-13T02:05:09.832Z,-0.30
2022-12-13T02:07:40.299Z,-0.70
2022-12-13T02:10:09.810Z,-0.70
2022-12-13T02:12:39.289Z,-0.50
2022-12-13T02:15:12.917Z,-0.40
2022-12-13T02:18:08.119Z,-0.60
2022-12-13T02:20:53.267Z,-0.80
2022-12-13T02:24:00.891Z,-0.50
2022-12-13T02:26:57.779Z,-0.70
2022-12-13T02:29:59.315Z,-0.50
2022-12-13T02:32:33.360Z,-0.70
2022-12-13T02:35:07.379Z,-0.70
2022-12-13T02:37:48.004Z,-1.00
2022-12-13T02:40:23.327Z,-0.60
2022-12-13T02:42:59.081Z,-0.60
2022-12-13T02:45:34.734Z,-0.60
2022-12-13T02:48:06.582Z,-0.50
2022-12-13T02:50:36.358Z,-0.50
2022-12-13T02:53:06.329Z,-0.40
2022-12-13T02:55:36.842Z,-0.20
2022-12-13T03:00:48.053Z,-0.40
2022-12-13T03:03:27.540Z,-0.50
2022-12-13T03:06:25.330Z,-0.50
2022-12-13T03:09:21.004Z,-0.50
2022-12-13T03:12:20.854Z,-0.40
2022-12-13T03:14:57.449Z,-0.30
2022-12-13T03:17:29.264Z,-0.30
2022-12-13T03:19:58.950Z,-0.40
2022-12-13T03:22:27.064Z,-0.40
2022-12-13T03:24:55.414Z,-0.30
2022-12-13T03:27:23.591Z,-0.20
2022-12-13T03:29:51.782Z,0.00
2022-12-13T03:32:19.942Z,-0.20
2022-12-13T03:34:52.167Z,0.00
2022-12-13T03:37:30.510Z,-0.20
2022-12-13T03:39:58.947Z,-0.30
2022-12-13T03:42:27.473Z,-0.20
2022-12-13T03:44:55.606Z,-0.30
2022-12-13T03:49:54.040Z,-0.30
2022-12-13T03:52:22.770Z,-0.20
2022-12-13T03:54:52.180Z,0.20
2022-12-13T03:57:20.417Z,-0.30
2022-12-13T03:59:48.519Z,0.00
2022-12-13T04:02:16.701Z,-0.30
2022-12-13T04:05:00.731Z,-0.50
2022-12-13T04:10:26.429Z,-0.10
2022-12-13T04:13:11.265Z,-0.20
2022-12-13T04:18:08.296Z,-0.40
2022-12-13T04:20:36.404Z,-0.20
2022-12-13T04:23:10.269Z,-0.50
2022-12-13T04:25:41.094Z,-0.30
2022-12-13T04:33:06.696Z,-0.40
2022-12-13T04:38:03.491Z,-0.20
2022-12-13T04:43:01.510Z,-0.40
2022-12-13T04:45:32.970Z,-0.20
2022-12-13T05:00:25.069Z,-0.50
2022-12-13T05:02:53.247Z,-0.70
2022-12-13T05:07:50.777Z,-0.50
2022-12-13T05:10:33.982Z,-0.60
2022-12-13T05:13:06.109Z,-0.50
2022-12-13T05:15:35.644Z,-0.50
2022-12-13T05:18:10.615Z,-0.50
2022-12-13T05:20:40.121Z,-0.70
2022-12-13T05:25:37.513Z,-0.80
2022-12-13T05:28:08.851Z,-0.70
2022-12-13T05:30:57.529Z,-0.90
2022-12-13T05:33:26.013Z,-0.80
2022-12-13T05:35:59.399Z,-1.00
2022-12-13T05:46:14.242Z,-0.80
2022-12-13T05:53:41.522Z,-0.80
2022-12-13T05:56:10.963Z,-0.80
2022-12-13T05:58:40.608Z,-0.80
2022-12-13T06:01:10.513Z,0.50
2022-12-13T06:03:40.915Z,-1.00
2022-12-13T06:06:10.943Z,-1.00
2022-12-13T06:16:22.650Z,-1.10
2022-12-13T06:19:01.266Z,-1.10
2022-12-13T06:24:15.647Z,-1.10
2022-12-13T06:26:45.064Z,-1.40
2022-12-13T06:29:24.226Z,-0.80
2022-12-13T06:32:01.365Z,-1.00
2022-12-13T06:34:33.918Z,-1.20
2022-12-13T06:37:04.598Z,-1.30
2022-12-13T06:42:03.245Z,-1.20
2022-12-13T06:49:44.569Z,-1.30
2022-12-13T06:52:14.971Z,-1.70
2022-12-13T06:54:44.782Z,-1.30
2022-12-13T06:57:13.539Z,-1.80
2022-12-13T06:59:42.682Z,-1.30
2022-12-13T07:02:15.509Z,-1.50
2022-12-13T07:04:56.223Z,-1.40
2022-12-13T07:07:25.849Z,-1.40
2022-12-13T07:09:54.367Z,-1.20
2022-12-13T07:20:08.396Z,-1.40
2022-12-13T07:22:44.918Z,-1.30
2022-12-13T07:25:27.427Z,-1.50
2022-12-13T07:28:02.039Z,-1.50
2022-12-13T07:30:32.748Z,-1.50
2022-12-13T07:33:02.225Z,-1.50
2022-12-13T07:35:32.439Z,-1.20
2022-12-13T07:38:07.238Z,-1.40
2022-12-13T07:43:04.976Z,-1.40
2022-12-13T07:45:33.710Z,-1.30
2022-12-13T07:48:05.754Z,-1.50
2022-12-13T07:55:35.404Z,-1.10
2022-12-13T07:58:07.767Z,-1.10
2022-12-13T08:05:38.856Z,-1.20
2022-12-13T08:08:09.208Z,-1.40
2022-12-13T08:10:37.440Z,-1.10
2022-12-13T08:23:02.704Z,-0.70
2022-12-13T08:25:32.140Z,-1.20
2022-12-13T08:30:33.186Z,-1.40
2022-12-13T08:33:05.244Z,-1.70
2022-12-13T08:35:34.958Z,-1.20
2022-12-13T08:38:04.893Z,-1.00
2022-12-13T08:43:01.626Z,-0.90
2022-12-13T08:48:00.690Z,-1.00
2022-12-13T08:55:31.422Z,-1.00
2022-12-13T09:08:24.770Z,-0.70
2022-12-13T09:10:59.900Z,-1.00
2022-12-13T09:13:32.160Z,-3.40
2022-12-13T09:21:10.718Z,-1.40
2022-12-13T09:23:45.660Z,-0.80
2022-12-13T09:26:17.942Z,-0.80
2022-12-13T09:36:21.559Z,-1.00
2022-12-13T09:38:50.017Z,-0.80
2022-12-13T09:41:28.947Z,-0.90
2022-12-13T09:44:01.962Z,-0.60
2022-12-13T09:46:34.424Z,-0.80
2022-12-13T09:49:15.970Z,-0.70
2022-12-13T09:52:11.422Z,-0.90
2022-12-13T09:54:48.157Z,-0.80
2022-12-13T09:57:31.392Z,-1.00
2022-12-13T10:00:04.683Z,-0.80
2022-12-13T10:02:45.312Z,-0.70
2022-12-13T10:05:22.751Z,-1.10
2022-12-13T10:07:56.157Z,-1.00
2022-12-13T10:10:24.559Z,-1.00
2022-12-13T10:12:59.257Z,-0.70
2022-12-13T10:20:29.022Z,-0.80
2022-12-13T10:25:51.603Z,-1.30
2022-12-13T10:28:27.513Z,-0.90
2022-12-13T10:30:56.677Z,-0.90
2022-12-13T10:33:28.414Z,-0.90
2022-12-13T10:36:05.757Z,-1.10
2022-12-13T10:38:38.330Z,-0.80
2022-12-13T10:41:28.622Z,-0.60
2022-12-13T10:44:25.761Z,-1.00
2022-12-13T10:47:03.517Z,-1.40
2022-12-13T10:49:49.070Z,-1.30
2022-12-13T10:52:30.930Z,-1.40
2022-12-13T10:55:03.306Z,-1.30
2022-12-13T11:00:01.714Z,-1.70
2022-12-13T11:02:36.306Z,-1.70
2022-12-13T11:05:24.509Z,-1.40
2022-12-13T11:10:27.547Z,-1.40
2022-12-13T11:13:01.768Z,-1.30
2022-12-13T11:15:33.633Z,-1.50
2022-12-13T11:18:04.085Z,-1.40
2022-12-13T11:20:35.386Z,-1.30
2022-12-13T11:23:08.208Z,-1.10
2022-12-13T11:25:41.612Z,-1.10
2022-12-13T11:28:27.888Z,-1.20
2022-12-13T11:31:10.471Z,-1.00
2022-12-13T11:33:47.721Z,-0.90
2022-12-13T11:36:27.448Z,-0.90
2022-12-13T11:39:08.149Z,-1.20
2022-12-13T11:41:40.058Z,-1.00
2022-12-13T11:44:15.282Z,-1.30
2022-12-13T11:46:47.497Z,-0.90
2022-12-13T11:49:19.198Z,-1.20
2022-12-13T11:51:51.781Z,-1.50
2022-12-13T11:54:25.806Z,-1.70
2022-12-13T11:57:00.239Z,0.20
2022-12-13T11:59:39.818Z,-1.20
2022-12-13T12:02:21.540Z,-0.80
2022-12-13T12:04:58.088Z,-1.10
2022-12-13T12:07:34.915Z,-0.80
2022-12-13T12:10:21.092Z,-1.20
2022-12-13T12:12:54.398Z,-1.20
2022-12-13T12:15:27.807Z,-1.30
2022-12-13T12:17:59.126Z,-1.60
2022-12-13T12:20:40.934Z,-1.60
2022-12-13T12:23:20.966Z,-1.70
2022-12-13T12:25:55.689Z,-1.70
2022-12-13T12:28:34.842Z,-1.50
2022-12-13T12:31:19.897Z,-1.60
2022-12-13T12:33:58.768Z,-1.80
2022-12-13T12:36:43.669Z,-2.00
2022-12-13T12:39:27.676Z,-2.20
2022-12-13T12:42:16.513Z,-2.10
2022-12-13T12:44:55.382Z,-2.10
2022-12-13T12:48:08.977Z,-2.10
2022-12-13T12:50:37.165Z,-4.30
2022-12-13T12:53:28.259Z,-2.20
2022-12-13T12:56:06.507Z,-2.20
2022-12-13T12:58:41.377Z,-2.20
2022-12-13T13:01:21.806Z,-2.30
2022-12-13T13:03:52.909Z,-2.10
2022-12-13T13:06:35.853Z,-2.20
2022-12-13T13:09:10.096Z,-2.10
2022-12-13T13:11:43.128Z,-2.00
2022-12-13T13:14:31.397Z,-2.10
2022-12-13T13:19:48.684Z,-2.30
2022-12-13T13:22:34.098Z,-2.10
2022-12-13T13:25:23.566Z,-2.20
2022-12-13T13:30:22.940Z,-2.40
2022-12-13T13:32:52.502Z,-2.40
2022-12-13T13:35:53.304Z,-2.50
2022-12-13T13:38:50.478Z,-2.40
2022-12-13T13:41:57.260Z,-2.60
2022-12-13T13:45:03.394Z,-2.40
2022-12-13T13:47:42.913Z,-2.30
2022-12-13T13:50:42.526Z,-2.50
2022-12-13T13:53:42.230Z,-2.50
2022-12-13T13:56:35.518Z,-2.40
2022-12-13T13:59:55.840Z,-1.80
2022-12-13T14:03:01.968Z,-2.30
2022-12-13T14:06:20.642Z,-2.50
2022-12-13T14:09:12.833Z,-2.70
2022-12-13T14:12:13.973Z,-2.60
2022-12-13T14:15:09.018Z,-2.90
2022-12-13T14:18:21.151Z,-2.90
2022-12-13T14:21:14.259Z,-3.00
2022-12-13T14:23:56.536Z,-3.00
2022-12-13T14:26:44.777Z,-3.20
2022-12-13T14:29:24.725Z,-3.10
2022-12-13T14:34:24.774Z,-3.00
2022-12-13T14:37:00.353Z,-3.10
2022-12-13T14:39:31.415Z,-3.10
2022-12-13T14:42:01.247Z,-3.10
2022-12-13T14:44:31.286Z,-3.20
2022-12-13T14:47:02.257Z,-3.10
2022-12-13T14:49:33.104Z,-3.20
2022-12-13T14:52:06.631Z,-2.90
2022-12-13T14:54:42.663Z,-2.90
2022-12-13T14:57:18.211Z,-3.00
2022-12-13T14:59:50.611Z,-2.70
2022-12-13T15:02:30.062Z,-3.10
2022-12-13T15:05:01.189Z,-5.30
2022-12-13T15:07:32.545Z,-2.90
2022-12-13T15:10:05.224Z,-2.90
2022-12-13T15:15:04.173Z,-2.70
2022-12-13T15:17:34.943Z,-2.40
2022-12-13T15:20:26.165Z,-2.60
2022-12-13T15:23:03.113Z,-2.80
2022-12-13T15:25:37.137Z,-2.50
2022-12-13T15:28:06.290Z,-2.60
2022-12-13T15:30:36.490Z,-2.70
2022-12-13T15:33:07.926Z,-2.60
2022-12-13T15:35:37.973Z,-1.20
2022-12-13T15:38:06.166Z,-3.20
2022-12-13T15:40:35.743Z,-2.90
2022-12-13T15:43:03.928Z,-2.80
2022-12-13T15:45:37.113Z,-2.80
2022-12-13T15:48:06.643Z,-3.00
2022-12-13T15:50:37.586Z,-2.90
2022-12-13T15:53:18.756Z,-2.70
2022-12-13T15:55:48.351Z,-2.50
2022-12-13T15:58:26.860Z,-2.70
2022-12-13T16:03:26.879Z,-2.60
2022-12-13T16:05:57.064Z,-1.30
2022-12-13T16:08:29.178Z,-2.60
2022-12-13T16:10:59.645Z,-1.60
2022-12-13T16:13:30.105Z,-2.80
2022-12-13T16:16:09.415Z,-2.70
2022-12-13T16:18:46.664Z,-3.00
2022-12-13T16:23:48.775Z,-2.80
2022-12-13T16:26:23.792Z,-2.70
2022-12-13T16:31:22.430Z,-2.70
2022-12-13T16:36:19.589Z,-2.80
2022-12-13T16:43:54.892Z,-2.80
2022-12-13T16:47:12.886Z,-2.80
2022-12-13T16:49:20.518Z,-2.80
2022-12-13T16:51:49.684Z,-2.70
2022-12-13T16:59:19.851Z,-2.70
2022-12-13T17:01:49.033Z,-2.80
2022-12-13T17:04:21.051Z,-2.70
2022-12-13T17:06:50.549Z,-2.70
2022-12-13T17:11:47.543Z,-2.60
2022-12-13T17:16:45.843Z,-2.70
2022-12-13T17:19:15.713Z,-2.60
2022-12-13T17:26:54.234Z,-2.60
2022-12-13T17:31:54.315Z,-2.80
2022-12-13T17:41:55.592Z,-2.60
2022-12-13T17:44:25.166Z,-2.70
2022-12-13T17:46:55.780Z,-3.00
2022-12-13T17:51:54.559Z,-2.30
2022-12-13T17:54:23.899Z,-2.60
2022-12-13T17:59:20.757Z,-2.90
2022-12-13T18:01:48.893Z,-3.00
2022-12-13T18:04:18.581Z,-2.80
2022-12-13T18:06:46.851Z,-2.60
2022-12-13T18:09:15.247Z,-2.80
2022-12-13T18:14:12.244Z,-3.20
2022-12-13T18:16:41.682Z,-2.80
2022-12-13T18:19:12.817Z,-2.90
2022-12-13T18:21:43.252Z,-2.80
2022-12-13T18:24:12.015Z,-2.90
2022-12-13T18:26:40.171Z,-2.60
2022-12-13T18:36:36.599Z,-3.00
2022-12-13T18:39:06.963Z,-3.10
2022-12-13T18:41:35.838Z,-3.20
2022-12-13T18:44:08.088Z,-3.10
2022-12-13T18:46:37.887Z,-3.20
2022-12-13T18:49:07.075Z,-3.00
2022-12-13T18:51:35.716Z,-3.00
2022-12-13T18:56:34.682Z,-3.00
2022-12-13T19:01:31.660Z,-3.10
2022-12-13T19:11:29.457Z,-3.00
2022-12-13T19:13:59.090Z,-2.70
2022-12-13T19:16:27.821Z,-3.00
2022-12-13T19:26:28.246Z,-2.80
2022-12-13T19:28:59.972Z,-3.00
2022-12-13T19:31:32.144Z,-3.10
2022-12-13T19:34:01.592Z,-2.80
2022-12-13T19:36:30.247Z,-3.10
2022-12-13T19:38:58.805Z,-3.30
2022-12-13T19:41:27.368Z,-3.50
2022-12-13T19:46:25.559Z,-3.30
2022-12-13T19:53:51.599Z,-3.70
2022-12-13T19:56:21.916Z,-3.70
2022-12-13T19:58:51.396Z,-4.90
2022-12-13T20:03:50.297Z,-3.90
2022-12-13T20:06:19.785Z,-4.00
2022-12-13T20:08:48.320Z,-4.20
2022-12-13T20:11:20.346Z,-4.10
2022-12-13T20:13:49.891Z,-4.10
2022-12-13T20:16:19.592Z,-4.30
2022-12-13T20:18:49.707Z,-4.20
2022-12-13T20:26:20.102Z,-4.40
2022-12-13T20:28:49.277Z,-4.30
2022-12-13T20:31:19.380Z,-4.50
2022-12-13T20:36:27.915Z,-4.60
2022-12-13T20:38:57.754Z,-4.40
2022-12-13T20:41:27.598Z,-4.80
2022-12-13T20:43:57.872Z,-4.70
2022-12-13T20:46:27.702Z,-4.70
2022-12-13T20:48:58.813Z,-4.90
2022-12-13T20:51:29.956Z,-5.10
2022-12-13T20:53:58.670Z,-5.00
2022-12-13T20:56:28.732Z,-4.90
2022-12-13T20:58:57.547Z,-5.10
2022-12-13T21:01:27.545Z,-5.10
2022-12-13T21:03:57.046Z,-5.20
2022-12-13T21:08:58.233Z,-5.20
2022-12-13T21:11:29.018Z,-3.70
2022-12-13T21:14:05.315Z,-4.50
2022-12-13T21:16:39.498Z,-5.30
2022-12-13T21:19:08.780Z,-5.40
2022-12-13T21:21:37.510Z,-2.90
2022-12-13T21:24:08.316Z,-5.40
2022-12-13T21:29:07.467Z,-5.40
2022-12-13T21:31:37.373Z,-5.60
2022-12-13T21:34:06.578Z,-2.80
2022-12-13T21:36:35.979Z,-5.50
2022-12-13T21:39:09.049Z,-5.80
2022-12-13T21:49:22.920Z,-6.00
2022-12-13T21:54:21.973Z,-5.80
2022-12-13T22:02:16.338Z,-5.90
2022-12-13T22:04:46.400Z,-5.70
2022-12-13T22:07:17.265Z,-5.80
2022-12-13T22:09:47.981Z,-5.80
2022-12-13T22:12:21.745Z,-5.90
2022-12-13T22:14:50.495Z,-5.70
2022-12-13T22:17:29.693Z,-5.90
2022-12-13T22:27:30.607Z,-5.90
2022-12-13T22:32:29.748Z,-6.00
2022-12-13T22:34:58.167Z,-6.10
2022-12-13T22:37:26.463Z,-6.20
2022-12-13T22:42:24.362Z,-6.20
2022-12-13T22:47:21.033Z,-6.00
2022-12-13T22:52:18.106Z,-6.20
2022-12-13T22:54:46.330Z,-6.10
2022-12-13T22:59:44.835Z,-6.20
2022-12-13T23:07:10.891Z,-5.60
2022-12-13T23:09:39.082Z,-5.60
2022-12-13T23:12:25.952Z,-6.30
2022-12-13T23:14:55.500Z,-6.20
2022-12-13T23:22:22.376Z,-6.20
2022-12-13T23:32:17.911Z,-6.40
2022-12-13T23:44:40.019Z,-6.30
2022-12-13T23:49:37.973Z,-6.30
2022-12-13T23:54:34.509Z,-6.20
2022-12-13T23:59:31.064Z,-6.30
